Time;durP1;ratioP1;P1;durP2;ratioP2;P2;SDS_P1;SDS_P2;PMS_P1;PMS_P2;Temp;Humidity;BMP_temperature;BMP_pressure;BME280_temperature;BME280_humidity;BME280_pressure;Samples;Min_cycle;Max_cycle;Signal;HPM_P1;HPM_P2
2022/09/01 00:01:54;;;;;;;14.73;8.73;;;21.20;80.70;;;;;;6191186;23;20048;-85
2022/09/01 00:04:25;;;;;;;15.27;9.15;;;21.30;80.30;;;;;;6218457;23;20380;-85
2022/09/01 00:06:53;;;;;;;14.45;9.38;;;21.20;80.50;;;;;;6192313;23;20349;-86
2022/09/01 00:09:21;;;;;;;14.48;8.68;;;21.20;80.50;;;;;;6192581;23;20016;-85
2022/09/01 00:11:52;;;;;;;12.98;8.95;;;21.20;80.50;;;;;;6219037;23;20059;-85
2022/09/01 00:14:25;;;;;;;14.95;8.57;;;21.20;80.40;;;;;;6219513;23;20004;-85
2022/09/01 00:16:51;;;;;;;11.82;8.57;;;21.10;80.10;;;;;;6192329;23;20032;-85
2022/09/01 00:19:16;;;;;;;13.88;8.82;;;21.10;80.40;;;;;;6191652;23;20008;-85
2022/09/01 00:21:43;;;;;;;12.25;7.97;;;21.10;80.20;;;;;;6192120;23;20488;-85
2022/09/01 00:24:11;;;;;;;14.30;7.80;;;21.10;80.10;;;;;;6191768;23;20008;-85
2022/09/01 00:26:36;;;;;;;11.73;8.57;;;21.00;80.10;;;;;;6219139;23;20104;-85
2022/09/01 00:29:03;;;;;;;13.25;7.45;;;20.90;80.20;;;;;;6218677;23;20028;-85
2022/09/01 00:31:29;;;;;;;17.58;7.63;;;20.90;80.00;;;;;;6218573;23;20008;-85
2022/09/01 00:33:54;;;;;;;14.90;7.82;;;20.90;80.00;;;;;;6218683;23;20039;-84
2022/09/01 00:36:21;;;;;;;14.55;7.00;;;20.90;79.80;;;;;;6218104;23;20020;-85
2022/09/01 00:38:48;;;;;;;12.15;7.18;;;20.90;79.70;;;;;;6218799;23;20103;-85
2022/09/01 00:41:15;;;;;;;10.30;7.32;;;20.80;79.90;;;;;;6191731;23;20012;-85
2022/09/01 00:43:51;;;;;;;11.43;7.70;;;20.80;80.00;;;;;;6191498;23;20064;-85
2022/09/01 00:46:21;;;;;;;13.23;7.70;;;20.80;80.20;;;;;;6218087;23;19996;-85
2022/09/01 00:48:50;;;;;;;;;;;20.80;80.20;;;;;;6219234;23;20384;-85
2022/09/01 00:51:16;;;;;;;11.80;6.75;;;20.80;80.00;;;;;;6191820;23;19904;-84
2022/09/01 00:53:44;;;;;;;13.32;7.30;;;20.80;79.60;;;;;;6217985;23;20054;-86
2022/09/01 00:56:10;;;;;;;10.48;6.63;;;20.80;79.60;;;;;;6191738;23;20467;-85
2022/09/01 00:58:57;;;;;;;11.93;6.60;;;20.80;79.50;;;;;;6218508;23;20019;-85
2022/09/01 01:01:23;;;;;;;9.30;6.70;;;20.70;79.60;;;;;;6218613;23;19996;-86
2022/09/01 01:03:49;;;;;;;11.75;6.88;;;20.70;79.60;;;;;;6218265;23;20005;-85
2022/09/01 01:06:15;;;;;;;13.18;7.25;;;20.60;79.70;;;;;;6218680;23;19997;-84
2022/09/01 01:08:56;;;;;;;9.05;5.70;;;20.70;79.60;;;;;;6191509;23;20001;-85
2022/09/01 01:11:23;;;;;;;10.55;7.22;;;20.50;79.60;;;;;;6191911;23;20078;-86
2022/09/01 01:13:55;;;;;;;11.55;6.85;;;20.50;79.60;;;;;;6218281;23;20001;-85
2022/09/01 01:16:24;;;;;;;13.23;7.18;;;20.50;79.40;;;;;;6218501;23;19996;-85
2022/09/01 01:18:50;;;;;;;10.18;6.72;;;20.50;79.30;;;;;;6218384;23;20337;-85
2022/09/01 01:24:46;;;;;;;12.07;6.32;;;20.40;79.60;;;;;;6156700;23;20012;-85
2022/09/01 01:27:21;;;;;;;10.00;6.30;;;20.40;79.50;;;;;;6191052;23;20068;-84
2022/09/01 01:29:51;;;;;;;11.38;7.03;;;20.40;79.50;;;;;;6191572;23;20043;-84
2022/09/01 01:32:16;;;;;;;16.00;6.82;;;20.40;79.40;;;;;;6191381;23;20015;-84
2022/09/01 01:34:44;;;;;;;12.05;7.07;;;20.30;79.50;;;;;;6191478;23;20004;-84
2022/09/01 01:37:13;;;;;;;9.68;6.53;;;20.20;79.50;;;;;;6217978;23;20492;-84
2022/09/01 01:39:41;;;;;;;13.27;7.68;;;20.20;79.90;;;;;;6218519;23;20024;-84
2022/09/01 01:42:08;;;;;;;12.38;7.00;;;20.10;80.00;;;;;;6191269;23;20087;-84
2022/09/01 01:44:37;;;;;;;12.05;7.35;;;20.10;79.90;;;;;;6217703;23;20001;-84
2022/09/01 01:47:07;;;;;;;12.82;7.43;;;20.10;79.90;;;;;;6191192;23;20063;-84
2022/09/01 01:49:33;;;;;;;;;;;20.00;80.10;;;;;;6192125;23;20004;-84
2022/09/01 01:51:58;;;;;;;11.10;7.05;;;20.00;80.10;;;;;;6218151;23;19899;-84
2022/09/01 01:54:31;;;;;;;15.32;8.00;;;20.00;80.10;;;;;;6217660;23;20020;-84
2022/09/01 01:56:58;;;;;;;13.82;7.65;;;20.00;80.20;;;;;;6191471;23;20075;-85
2022/09/01 01:59:25;;;;;;;13.43;7.10;;;20.00;80.20;;;;;;6191294;23;20024;-84
2022/09/01 02:01:51;;;;;;;11.80;7.13;;;20.00;80.30;;;;;;6190531;23;20000;-84
2022/09/01 02:04:21;;;;;;;12.43;7.68;;;20.00;80.20;;;;;;6191334;23;20011;-84
2022/09/01 02:06:48;;;;;;;12.77;8.50;;;20.00;80.20;;;;;;6190823;23;20011;-84
2022/09/01 02:09:17;;;;;;;11.05;6.88;;;20.00;80.00;;;;;;6217885;23;20341;-84
2022/09/01 02:11:44;;;;;;;13.98;8.48;;;20.00;79.90;;;;;;6217877;23;20010;-84
2022/09/01 02:14:11;;;;;;;15.95;8.25;;;20.00;80.00;;;;;;6191086;23;20047;-84
2022/09/01 02:16:38;;;;;;;12.73;7.68;;;20.00;80.00;;;;;;6190947;23;20087;-84
2022/09/01 02:19:06;;;;;;;13.35;7.85;;;20.00;80.00;;;;;;6217806;23;20394;-84
2022/09/01 02:21:32;;;;;;;12.82;8.18;;;20.00;79.90;;;;;;6190489;23;20008;-84
2022/09/01 02:24:15;;;;;;;12.52;7.85;;;20.00;79.80;;;;;;6217590;23;20008;-83
2022/09/01 02:26:46;;;;;;;12.88;7.88;;;20.00;79.80;;;;;;6191565;23;20054;-84
2022/09/01 02:29:31;;;;;;;14.05;7.90;;;20.00;79.70;;;;;;6191076;23;20009;-84
2022/09/01 02:31:56;;;;;;;13.48;8.38;;;20.00;79.70;;;;;;6217745;23;20005;-84
2022/09/01 02:34:26;;;;;;;14.60;7.82;;;20.00;79.70;;;;;;6191453;23;20031;-84
2022/09/01 02:36:53;;;;;;;15.32;8.35;;;19.90;79.60;;;;;;6190283;23;20428;-83
2022/09/01 02:39:22;;;;;;;13.25;7.78;;;19.90;79.70;;;;;;6217295;23;20051;-83
2022/09/01 02:41:48;;;;;;;12.18;8.73;;;19.80;79.90;;;;;;6217189;23;20072;-84
2022/09/01 02:44:15;;;;;;;11.15;7.28;;;19.80;80.00;;;;;;6190968;23;20004;-83
2022/09/01 02:47:00;;;;;;;14.55;7.53;;;19.80;80.00;;;;;;6190882;23;20092;-83
2022/09/01 02:49:28;;;;;;;10.48;7.53;;;19.80;80.00;;;;;;6191102;23;20375;-83
2022/09/01 02:51:58;;;;;;;12.52;8.25;;;19.80;80.00;;;;;;6191058;23;20008;-83
2022/09/01 02:54:24;;;;;;;9.93;7.80;;;19.80;80.00;;;;;;6217359;23;20398;-83
2022/09/01 02:56:53;;;;;;;13.30;7.88;;;19.80;79.90;;;;;;6217739;23;20012;-83
2022/09/01 02:59:21;;;;;;;14.93;8.30;;;19.80;79.90;;;;;;6191144;23;20005;-84
2022/09/01 03:01:48;;;;;;;11.65;8.23;;;19.80;79.80;;;;;;6216940;23;20035;-83
2022/09/01 03:04:20;;;;;;;13.90;8.48;;;19.80;79.70;;;;;;6217389;23;20058;-82
2022/09/01 03:06:45;;;;;;;12.23;8.30;;;19.80;79.70;;;;;;6217724;23;20051;-83
2022/09/01 03:09:15;;;;;;;13.43;7.20;;;19.70;79.70;;;;;;6217618;23;20005;-83
2022/09/01 03:11:43;;;;;;;14.57;8.48;;;19.70;79.80;;;;;;6190644;23;20032;-83
2022/09/01 03:14:09;;;;;;;9.77;7.57;;;19.60;80.10;;;;;;6217754;23;20012;-83
2022/09/01 03:16:37;;;;;;;14.55;8.43;;;19.50;80.10;;;;;;6217229;23;20012;-83
2022/09/01 03:19:10;;;;;;;13.60;8.40;;;19.50;80.40;;;;;;6192776;23;20008;-83
2022/09/01 03:21:39;;;;;;;14.60;8.82;;;19.50;80.40;;;;;;6192984;23;20055;-83
2022/09/01 03:24:14;;;;;;;16.05;8.18;;;19.50;80.20;;;;;;6192847;23;20000;-83
2022/09/01 03:26:52;;;;;;;16.45;7.93;;;19.50;80.30;;;;;;6192800;23;20013;-83
2022/09/01 03:29:18;;;;;;;15.80;9.05;;;19.50;80.40;;;;;;6219380;23;20077;-83
2022/09/01 03:31:44;;;;;;;12.65;8.43;;;19.40;80.30;;;;;;6219534;23;20059;-83
2022/09/01 03:34:11;;;;;;;12.40;7.72;;;19.40;80.20;;;;;;6192355;23;20008;-83
2022/09/01 03:36:38;;;;;;;11.73;7.35;;;19.40;80.20;;;;;;6192469;23;20464;-83
2022/09/01 03:39:06;;;;;;;15.45;8.20;;;19.40;80.50;;;;;;6192603;23;20009;-83
2022/09/01 03:41:31;;;;;;;15.68;8.93;;;19.30;80.50;;;;;;6192787;23;20005;-83
2022/09/01 03:44:00;;;;;;;13.50;7.97;;;19.30;80.50;;;;;;6193151;23;20034;-83
2022/09/01 03:46:29;;;;;;;10.43;7.63;;;19.30;80.50;;;;;;6192022;23;20016;-83
2022/09/01 03:49:02;;;;;;;12.07;7.47;;;19.30;80.20;;;;;;6192584;23;20004;-83
2022/09/01 03:51:29;;;;;;;11.43;7.90;;;19.40;80.00;;;;;;6218629;23;20491;-83
2022/09/01 03:53:56;;;;;;;14.20;7.43;;;19.40;79.90;;;;;;6218566;23;20005;-83
2022/09/01 03:56:24;;;;;;;13.57;8.80;;;19.40;79.80;;;;;;6219264;23;20000;-83
2022/09/01 03:58:51;;;;;;;13.43;8.40;;;19.40;79.80;;;;;;6218880;23;20012;-83
2022/09/01 04:01:20;;;;;;;11.98;7.97;;;19.40;79.80;;;;;;6192510;23;20055;-83
2022/09/01 04:03:47;;;;;;;13.63;8.68;;;19.30;79.90;;;;;;6192705;23;20054;-83
2022/09/01 04:06:14;;;;;;;13.02;8.57;;;19.30;79.80;;;;;;6192851;23;20016;-83
2022/09/01 04:08:40;;;;;;;17.17;9.45;;;19.30;79.90;;;;;;6192256;23;20009;-83
2022/09/01 04:11:17;;;;;;;13.85;9.43;;;19.30;80.00;;;;;;6192097;23;20012;-83
2022/09/01 04:13:44;;;;;;;19.67;10.48;;;19.30;80.20;;;;;;6191801;23;20036;-82
2022/09/01 04:19:19;;;;;;;;;;;19.30;80.00;;;;;;6219395;23;20023;-83
2022/09/01 04:21:49;;;;;;;13.55;9.02;;;19.30;80.00;;;;;;6219141;23;19941;-84
2022/09/01 04:24:15;;;;;;;16.23;9.25;;;19.30;79.80;;;;;;6219127;23;19997;-84
2022/09/01 04:26:41;;;;;;;14.63;8.90;;;19.30;79.90;;;;;;6192419;23;20012;-84
2022/09/01 04:29:09;;;;;;;14.57;9.20;;;19.30;80.10;;;;;;6191421;23;20009;-83
2022/09/01 04:31:37;;;;;;;13.45;9.00;;;19.20;80.10;;;;;;6191146;23;20444;-83
2022/09/01 04:34:09;;;;;;;13.68;9.20;;;19.20;80.10;;;;;;6218826;23;20000;-83
2022/09/01 04:36:36;;;;;;;14.02;9.45;;;19.10;80.20;;;;;;6218699;23;20020;-83
2022/09/01 04:39:07;;;;;;;15.15;8.93;;;19.20;80.10;;;;;;6192428;23;20011;-90
2022/09/01 04:41:36;;;;;;;15.05;8.73;;;19.20;79.90;;;;;;6192595;23;20001;-82
2022/09/01 04:44:05;;;;;;;12.50;8.73;;;19.20;79.80;;;;;;6218713;23;20028;-81
2022/09/01 04:46:49;;;;;;;12.55;8.35;;;19.20;79.70;;;;;;6191932;23;20012;-81
2022/09/01 04:49:25;;;;;;;16.42;9.18;;;19.10;79.70;;;;;;6191683;23;20007;-81
2022/09/01 04:51:52;;;;;;;17.63;8.55;;;19.10;79.90;;;;;;6191281;23;20009;-82
2022/09/01 04:54:19;;;;;;;13.15;7.75;;;19.00;80.10;;;;;;6218728;23;20007;-83
2022/09/01 04:56:49;;;;;;;11.77;8.07;;;19.00;80.10;;;;;;6218132;23;20001;-85
2022/09/01 04:59:16;;;;;;;15.00;9.18;;;19.00;80.10;;;;;;6192253;23;20436;-82
2022/09/01 05:01:45;;;;;;;14.55;8.30;;;19.00;80.00;;;;;;6191827;23;20737;-85
2022/09/01 05:04:18;;;;;;;14.18;8.90;;;19.00;80.20;;;;;;6189785;23;20000;-79
2022/09/01 05:07:17;;;;;;;12.27;7.50;;;18.90;80.30;;;;;;6190972;23;20016;-84
2022/09/01 05:13:56;;;;;;;21.13;8.30;;;18.90;80.40;;;;;;6126310;23;20061;-85
2022/09/01 05:16:24;;;;;;;15.95;7.93;;;19.00;80.50;;;;;;6189109;23;20008;-83
2022/09/01 05:18:53;;;;;;;13.50;7.43;;;18.90;80.60;;;;;;6192200;23;20024;-83
2022/09/01 05:21:21;;;;;;;9.93;6.60;;;18.90;80.60;;;;;;6218427;23;19993;-83
2022/09/01 05:23:50;;;;;;;13.57;7.60;;;18.90;80.50;;;;;;6218836;23;19996;-81
2022/09/01 05:26:28;;;;;;;14.57;7.73;;;18.80;80.50;;;;;;6192522;23;20453;-81
2022/09/01 05:28:58;;;;;;;13.95;6.88;;;18.90;80.40;;;;;;6191939;23;20243;-81
2022/09/01 05:31:26;;;;;;;;;;;18.80;80.40;;;;;;6192564;23;20394;-82
2022/09/01 05:33:53;;;;;;;12.18;7.18;;;18.90;80.30;;;;;;6192393;23;19983;-80
2022/09/01 05:36:21;;;;;;;14.02;6.85;;;18.80;80.40;;;;;;6218823;23;20042;-85
2022/09/01 05:38:49;;;;;;;11.82;7.30;;;18.90;80.60;;;;;;6192617;23;20005;-85
2022/09/01 05:41:16;;;;;;;12.90;7.18;;;18.80;80.70;;;;;;6192244;23;20004;-82
2022/09/01 05:43:45;;;;;;;11.68;6.60;;;18.80;80.70;;;;;;6191886;23;20064;-89
2022/09/01 05:46:14;;;;;;;9.90;6.40;;;18.80;80.90;;;;;;6192079;23;20360;-84
2022/09/01 05:48:40;;;;;;;8.63;5.97;;;18.80;81.00;;;;;;6191637;23;20019;-85
2022/09/01 05:51:07;;;;;;;9.20;6.40;;;18.80;81.00;;;;;;6218204;23;20032;-83
2022/09/01 05:53:33;;;;;;;11.52;6.40;;;18.90;80.80;;;;;;6218734;23;20087;-84
2022/09/01 05:56:05;;;;;;;17.00;7.28;;;19.00;81.00;;;;;;6191759;23;20008;-84
2022/09/01 05:58:35;;;;;;;12.60;6.80;;;19.00;81.10;;;;;;6190450;23;20008;-84
2022/09/01 06:01:01;;;;;;;14.77;6.55;;;19.00;81.40;;;;;;6190117;23;20454;-84
2022/09/01 06:03:27;;;;;;;10.93;6.35;;;19.10;81.00;;;;;;6217831;23;19997;-84
2022/09/01 06:05:54;;;;;;;13.38;7.13;;;19.20;80.60;;;;;;6190551;23;20001;-85
2022/09/01 06:08:23;;;;;;;9.43;5.47;;;19.10;81.10;;;;;;6190398;23;20330;-84
2022/09/01 06:10:51;;;;;;;14.13;7.10;;;19.10;81.20;;;;;;6217370;23;20013;-84
2022/09/01 06:13:20;;;;;;;11.20;6.10;;;19.20;81.10;;;;;;6190421;23;20008;-84
2022/09/01 06:15:57;;;;;;;10.30;7.00;;;19.30;80.80;;;;;;6216600;23;20047;-87
2022/09/01 06:18:28;;;;;;;10.35;6.97;;;19.30;80.90;;;;;;6216932;23;20248;-87
2022/09/01 06:20:57;;;;;;;11.27;6.75;;;19.30;80.80;;;;;;6216931;23;20004;-87
2022/09/01 06:26:29;;;;;;;11.32;7.22;;;19.30;81.30;;;;;;6096095;23;20002;-87
2022/09/01 06:29:15;;;;;;;10.75;6.50;;;19.30;81.40;;;;;;6071839;23;20085;-87
2022/09/01 06:32:40;;;;;;;11.50;7.00;;;19.40;81.60;;;;;;6214304;23;20061;-87
2022/09/01 06:35:08;;;;;;;9.52;6.10;;;19.40;81.60;;;;;;6185830;23;20020;-85
2022/09/01 06:37:33;;;;;;;8.98;6.47;;;19.50;81.50;;;;;;6189946;23;20528;-88
2022/09/01 06:39:59;;;;;;;9.85;6.43;;;19.50;81.50;;;;;;6190338;23;20009;-88
2022/09/01 06:42:27;;;;;;;12.80;6.75;;;19.60;81.10;;;;;;6216286;23;20103;-88
2022/09/01 06:44:52;;;;;;;11.82;5.95;;;19.70;81.30;;;;;;6191353;23;20005;-87
2022/09/01 06:47:18;;;;;;;11.93;6.80;;;19.60;81.20;;;;;;6190705;23;20004;-87
2022/09/01 06:49:44;;;;;;;14.80;6.35;;;19.70;81.10;;;;;;6216052;23;20032;-87
2022/09/01 06:52:10;;;;;;;10.15;5.57;;;19.70;81.60;;;;;;6217730;23;20481;-87
2022/09/01 06:54:38;;;;;;;9.77;5.82;;;19.80;81.30;;;;;;6192031;23;20016;-88
2022/09/01 06:57:04;;;;;;;7.50;5.50;;;19.80;81.40;;;;;;6218623;23;20005;-88
2022/09/01 06:59:30;;;;;;;9.20;6.40;;;19.80;80.90;;;;;;6191931;23;20012;-87
2022/09/01 07:02:00;;;;;;;8.50;5.30;;;19.90;80.90;;;;;;6192456;23;20005;-87
2022/09/01 07:04:30;;;;;;;11.65;5.97;;;20.00;80.50;;;;;;6192271;23;20006;-91
2022/09/01 07:06:56;;;;;;;;;;;20.00;80.30;;;;;;6198322;23;20142;-88
2022/09/01 07:13:52;;;;;;;12.00;5.50;;;20.00;80.40;;;;;;6041722;23;20011;-87
2022/09/01 07:17:34;;;;;;;9.35;6.28;;;20.10;80.50;;;;;;6020569;23;20014;-89
2022/09/01 07:19:54;;;;;;;9.80;5.80;;;20.10;80.00;;;;;;6048523;23;20396;-84
2022/09/01 07:22:20;;;;;;;17.98;6.22;;;20.20;80.00;;;;;;6090148;23;20007;-92
2022/09/01 07:24:46;;;;;;;12.13;5.65;;;20.20;79.90;;;;;;6194183;23;20008;-91
2022/09/01 07:27:12;;;;;;;8.35;5.72;;;20.30;79.90;;;;;;6194571;23;20341;-91
2022/09/01 07:29:38;;;;;;;8.45;6.05;;;20.30;80.10;;;;;;6221531;23;20000;-91
2022/09/01 07:32:04;;;;;;;10.10;6.07;;;20.30;79.20;;;;;;6194092;23;20017;-91
2022/09/01 07:34:31;;;;;;;9.27;5.95;;;20.30;79.20;;;;;;6193782;23;20043;-91
2022/09/01 07:36:58;;;;;;;10.00;5.45;;;20.40;79.60;;;;;;6193833;23;20330;-91
2022/09/01 07:39:24;;;;;;;8.93;5.25;;;20.50;79.70;;;;;;6220466;23;20008;-91
2022/09/01 07:41:52;;;;;;;7.65;5.07;;;20.60;79.40;;;;;;6194126;23;20009;-91
2022/09/01 07:44:17;;;;;;;10.13;5.53;;;20.80;79.30;;;;;;6194860;23;20001;-91
2022/09/01 07:46:46;;;;;;;8.27;5.70;;;20.70;79.40;;;;;;6220752;23;20468;-92
2022/09/01 07:49:12;;;;;;;7.68;5.78;;;20.80;79.50;;;;;;6221129;23;19996;-91
2022/09/01 07:51:37;;;;;;;10.93;6.35;;;20.80;79.30;;;;;;6195152;23;20055;-90
2022/09/01 07:54:04;;;;;;;6.95;5.07;;;20.80;79.00;;;;;;6195029;23;20008;-91
2022/09/01 07:56:30;;;;;;;12.48;5.88;;;20.80;79.60;;;;;;6221367;23;20340;-90
2022/09/01 07:58:57;;;;;;;8.40;5.28;;;21.00;79.00;;;;;;6194457;23;20087;-92
2022/09/01 08:01:25;;;;;;;10.77;5.55;;;21.10;78.30;;;;;;6194971;23;20001;-92
2022/09/01 08:03:55;;;;;;;8.02;5.57;;;21.20;78.10;;;;;;6195092;23;20008;-91
2022/09/01 08:06:25;;;;;;;14.32;6.10;;;21.20;77.70;;;;;;6221780;23;19997;-91
2022/09/01 08:08:53;;;;;;;9.70;5.65;;;21.10;78.10;;;;;;6195219;23;20004;-91
2022/09/01 08:11:25;;;;;;;10.27;6.13;;;21.00;77.00;;;;;;6194563;23;20013;-91
2022/09/01 08:13:52;;;;;;;14.38;5.80;;;20.90;78.20;;;;;;6195040;23;20000;-91
2022/09/01 08:16:19;;;;;;;8.77;5.63;;;20.80;78.60;;;;;;6195097;23;20476;-92
2022/09/01 08:18:46;;;;;;;8.43;5.80;;;20.60;78.90;;;;;;6194875;23;20009;-91
2022/09/01 08:21:14;;;;;;;8.88;6.15;;;20.60;79.40;;;;;;6194556;23;20001;-90
2022/09/01 08:23:40;;;;;;;13.80;6.40;;;20.60;79.50;;;;;;6194159;23;20012;-92
2022/09/01 08:26:08;;;;;;;16.90;7.05;;;20.60;79.60;;;;;;6193687;23;20009;-88
2022/09/01 08:28:34;;;;;;;11.02;6.85;;;20.40;82.70;;;;;;6220218;23;20083;-89
2022/09/01 08:31:04;;;;;;;11.45;6.70;;;20.00;85.20;;;;;;6193648;23;20008;-90
2022/09/01 08:33:34;;;;;;;14.80;7.63;;;19.90;86.20;;;;;;6193706;23;20036;-89
2022/09/01 08:36:00;;;;;;;13.90;8.00;;;19.90;85.30;;;;;;6193514;23;20104;-90
2022/09/01 08:38:26;;;;;;;14.35;8.73;;;19.90;84.80;;;;;;6219700;23;20040;-90
2022/09/01 08:40:57;;;;;;;17.98;9.75;;;19.90;84.40;;;;;;6193272;23;20005;-88
2022/09/01 08:43:53;;;;;;;15.48;10.05;;;19.90;84.00;;;;;;6193619;23;20437;-89
2022/09/01 08:46:25;;;;;;;16.85;10.25;;;20.00;84.60;;;;;;6168194;23;20005;-88
2022/09/01 08:49:06;;;;;;;19.35;10.32;;;20.20;84.40;;;;;;6193200;23;20005;-90
2022/09/01 08:51:45;;;;;;;14.52;9.20;;;20.30;84.00;;;;;;6193820;23;20012;-89
2022/09/01 08:54:23;;;;;;;15.13;9.93;;;20.50;83.40;;;;;;6194094;23;20455;-90
2022/09/01 08:57:20;;;;;;;13.45;8.77;;;20.70;82.90;;;;;;6193665;23;20064;-90
2022/09/01 08:59:46;;;;;;;18.40;10.27;;;20.70;82.70;;;;;;6143442;23;20095;-91
2022/09/01 09:02:26;;;;;;;15.00;9.68;;;20.80;82.60;;;;;;6220302;23;20066;-92
2022/09/01 09:05:21;;;;;;;19.98;11.15;;;20.80;81.60;;;;;;6194867;23;20415;-90
2022/09/01 09:08:12;;;;;;;15.73;10.40;;;20.80;82.10;;;;;;6194559;23;20035;-92
2022/09/01 09:10:57;;;;;;;16.70;10.27;;;20.90;82.50;;;;;;6194678;23;20390;-90
2022/09/01 09:13:57;;;;;;;18.58;10.88;;;20.90;81.90;;;;;;6221018;23;20016;-92
2022/09/01 09:16:27;;;;;;;;;;;21.20;82.10;;;;;;6194260;23;20322;-91
2022/09/01 09:18:53;;;;;;;13.45;8.93;;;21.30;81.60;;;;;;6194420;23;19907;-91
2022/09/01 09:21:32;;;;;;;16.60;10.52;;;21.40;81.10;;;;;;6194220;23;20402;-92
2022/09/01 09:24:22;;;;;;;21.15;10.38;;;21.50;81.10;;;;;;6220447;23;20006;-91
2022/09/01 09:26:54;;;;;;;17.73;9.13;;;21.50;80.70;;;;;;6123667;23;20001;-90
2022/09/01 09:29:21;;;;;;;15.07;9.90;;;21.60;80.70;;;;;;6193563;23;20008;-90
2022/09/01 09:31:47;;;;;;;21.75;11.80;;;21.60;80.40;;;;;;6193023;23;20005;-90
2022/09/01 09:34:31;;;;;;;16.73;11.20;;;21.50;80.90;;;;;;6220572;23;20001;-93
2022/09/01 09:37:24;;;;;;;22.00;11.25;;;21.50;80.70;;;;;;6193370;23;20046;-91
2022/09/01 09:40:16;;;;;;;15.20;10.60;;;21.50;80.80;;;;;;6194314;23;20005;-90
2022/09/01 09:43:04;;;;;;;17.13;11.13;;;21.60;80.30;;;;;;6194004;23;20413;-90
2022/09/01 09:45:47;;;;;;;16.48;10.60;;;21.60;80.70;;;;;;6193586;23;19996;-90
2022/09/01 09:48:29;;;;;;;20.00;11.27;;;21.70;80.60;;;;;;6193607;23;20088;-90
2022/09/01 09:50:55;;;;;;;15.55;10.68;;;21.80;80.20;;;;;;6193565;23;20071;-91
2022/09/01 09:53:26;;;;;;;16.00;10.75;;;21.80;80.20;;;;;;6220095;23;20075;-93
2022/09/01 09:56:14;;;;;;;14.88;11.30;;;21.90;80.20;;;;;;6193632;23;20015;-91
2022/09/01 09:58:42;;;;;;;19.45;10.40;;;21.90;80.10;;;;;;6193941;23;20110;-91
2022/09/01 10:01:15;;;;;;;17.38;9.55;;;22.00;79.30;;;;;;6192950;23;20099;-92
2022/09/01 10:03:51;;;;;;;14.48;10.18;;;21.90;78.40;;;;;;6193419;23;20004;-93
2022/09/01 10:06:33;;;;;;;18.15;10.43;;;22.00;79.20;;;;;;6193310;23;20000;-91
2022/09/01 10:09:04;;;;;;;20.02;10.50;;;22.00;78.80;;;;;;6193323;23;20001;-92
2022/09/01 10:11:38;;;;;;;15.50;9.35;;;22.30;78.90;;;;;;6193010;23;20012;-92
2022/09/01 10:14:08;;;;;;;15.60;9.85;;;22.50;78.70;;;;;;6192916;23;20036;-91
2022/09/01 10:16:37;;;;;;;;;;;22.60;78.80;;;;;;6193676;23;20001;-90
2022/09/01 10:19:05;;;;;;;15.85;10.05;;;22.60;77.80;;;;;;6192380;23;19906;-91
2022/09/01 10:21:37;;;;;;;17.30;10.45;;;22.80;76.60;;;;;;6219055;23;20384;-91
2022/09/01 10:24:23;;;;;;;16.95;11.52;;;22.90;77.40;;;;;;6192640;23;20030;-91
2022/09/01 10:26:54;;;;;;;12.80;9.70;;;22.80;77.20;;;;;;6192297;23;20005;-90
2022/09/01 10:29:41;;;;;;;16.83;9.77;;;23.00;77.20;;;;;;6193315;23;20020;-91
2022/09/01 10:32:16;;;;;;;14.00;10.68;;;23.20;76.40;;;;;;6219285;23;20032;-90
2022/09/01 10:34:43;;;;;;;14.88;10.82;;;23.60;77.00;;;;;;6191981;23;20032;-90
2022/09/01 10:37:10;;;;;;;18.38;11.05;;;23.80;75.70;;;;;;6218584;23;20005;-89
2022/09/01 10:40:08;;;;;;;11.85;8.80;;;24.20;76.00;;;;;;6219307;23;19992;-88
2022/09/01 10:42:34;;;;;;;16.30;9.77;;;24.20;73.20;;;;;;6192016;23;20035;-90
2022/09/01 10:45:00;;;;;;;19.50;10.90;;;24.30;72.50;;;;;;6219077;23;20002;-89
2022/09/01 10:47:32;;;;;;;12.13;9.38;;;24.40;73.10;;;;;;6192268;23;20456;-87
2022/09/01 10:50:04;;;;;;;16.33;10.18;;;24.30;73.30;;;;;;6192582;23;20004;-88
2022/09/01 10:52:42;;;;;;;12.75;9.43;;;24.30;73.60;;;;;;6218601;23;20318;-89
2022/09/01 10:55:21;;;;;;;14.32;9.48;;;24.30;72.50;;;;;;6219062;23;20000;-89
2022/09/01 10:57:59;;;;;;;17.80;9.93;;;24.40;74.60;;;;;;6218466;23;20001;-90
2022/09/01 11:00:28;;;;;;;15.00;9.73;;;24.30;74.30;;;;;;6192207;23;20011;-90
2022/09/01 11:03:32;;;;;;;16.70;9.88;;;24.30;73.30;;;;;;6191910;23;20460;-90
2022/09/01 11:06:03;;;;;;;15.02;9.88;;;24.40;73.20;;;;;;6195233;23;20043;-89
2022/09/01 11:08:29;;;;;;;13.43;9.70;;;24.50;73.60;;;;;;6218706;23;20441;-89
2022/09/01 11:11:14;;;;;;;14.15;8.73;;;24.50;73.00;;;;;;6192435;23;20016;-88
2022/09/01 11:13:44;;;;;;;16.25;9.85;;;24.50;73.00;;;;;;6218563;23;20016;-90
2022/09/01 11:16:36;;;;;;;13.60;9.82;;;24.40;74.40;;;;;;6192494;23;20096;-88
2022/09/01 11:19:31;;;;;;;15.32;9.75;;;24.30;73.90;;;;;;6192524;23;20012;-89
2022/09/01 11:22:16;;;;;;;14.80;9.40;;;24.20;73.10;;;;;;6191631;23;20011;-90
2022/09/01 11:24:43;;;;;;;16.50;10.70;;;24.10;74.80;;;;;;6192172;23;20007;-90
2022/09/01 11:27:32;;;;;;;17.98;10.95;;;24.20;75.60;;;;;;6191872;23;20025;-89
2022/09/01 11:30:05;;;;;;;20.02;10.88;;;24.30;75.50;;;;;;6218112;23;20004;-89
2022/09/01 11:32:35;;;;;;;16.55;10.98;;;24.60;74.40;;;;;;6218815;23;20020;-88
2022/09/01 11:35:13;;;;;;;14.82;9.35;;;24.90;72.30;;;;;;6218461;23;20023;-89
2022/09/01 11:37:39;;;;;;;12.27;9.63;;;25.00;71.50;;;;;;6192188;23;20067;-90
2022/09/01 11:40:07;;;;;;;16.77;9.77;;;25.10;73.20;;;;;;6193910;23;20001;-88
2022/09/01 11:42:43;;;;;;;14.38;9.32;;;25.10;71.00;;;;;;6193717;23;20001;-88
2022/09/01 11:45:22;;;;;;;13.75;9.18;;;25.00;69.40;;;;;;6193501;23;20011;-89
2022/09/01 11:47:57;;;;;;;12.77;8.73;;;25.10;71.00;;;;;;6194089;23;20008;-88
2022/09/01 11:50:29;;;;;;;10.25;7.20;;;25.10;69.40;;;;;;6193711;23;20031;-88
2022/09/01 11:53:19;;;;;;;12.07;6.80;;;25.10;71.10;;;;;;6193349;23;20704;-90
2022/09/01 11:55:48;;;;;;;10.20;7.00;;;25.00;68.60;;;;;;6194103;23;20005;-89
2022/09/01 11:58:38;;;;;;;9.60;7.03;;;25.10;69.50;;;;;;6193069;23;20008;-88
2022/09/01 12:01:21;;;;;;;10.85;6.50;;;25.20;69.10;;;;;;6193649;23;20009;-90
2022/09/01 12:03:51;;;;;;;9.23;5.68;;;25.20;67.00;;;;;;6220466;23;19996;-89
2022/09/01 12:06:24;;;;;;;7.53;5.00;;;25.30;68.00;;;;;;6193960;23;20078;-88
2022/09/01 12:08:59;;;;;;;6.00;4.13;;;25.30;65.70;;;;;;6194429;23;20028;-88
2022/09/01 12:11:31;;;;;;;6.65;5.10;;;25.40;65.30;;;;;;6193561;23;20008;-88
2022/09/01 12:14:09;;;;;;;5.68;4.10;;;25.60;68.50;;;;;;6220168;23;20008;-87
2022/09/01 12:16:38;;;;;;;6.40;3.20;;;25.60;67.00;;;;;;6194000;23;20005;-87
2022/09/01 12:19:05;;;;;;;6.10;3.33;;;25.60;64.50;;;;;;6194120;23;20009;-89
2022/09/01 12:21:37;;;;;;;7.28;3.58;;;25.50;65.60;;;;;;6220415;23;20433;-90
2022/09/01 12:24:22;;;;;;;4.63;2.75;;;25.30;64.30;;;;;;6193684;23;20005;-89
2022/09/01 12:26:53;;;;;;;7.45;3.85;;;25.20;65.50;;;;;;6193942;23;20059;-88
2022/09/01 12:29:19;;;;;;;6.80;3.50;;;25.30;66.50;;;;;;6193520;23;20080;-91
2022/09/01 12:31:49;;;;;;;5.57;2.80;;;25.50;64.40;;;;;;6219958;23;20004;-90
2022/09/01 12:34:32;;;;;;;4.72;2.92;;;25.60;64.40;;;;;;6192622;23;20016;-89
2022/09/01 12:37:23;;;;;;;7.60;3.53;;;25.70;63.00;;;;;;6220151;23;20021;-90
2022/09/01 12:39:56;;;;;;;6.97;3.42;;;25.70;63.10;;;;;;6193138;23;20020;-88
2022/09/01 12:42:30;;;;;;;5.40;3.22;;;25.70;61.60;;;;;;6219546;23;20008;-88
2022/09/01 12:44:57;;;;;;;4.45;3.30;;;25.80;60.70;;;;;;6193244;23;20023;-88
2022/09/01 12:47:32;;;;;;;4.82;2.92;;;25.80;61.50;;;;;;6193219;23;20028;-88
2022/09/01 12:49:59;;;;;;;4.05;3.08;;;25.80;61.80;;;;;;6192818;23;20009;-88
2022/09/01 12:52:27;;;;;;;3.67;2.88;;;25.80;61.60;;;;;;6193248;23;20019;-89
2022/09/01 12:55:13;;;;;;;8.05;3.60;;;25.90;63.10;;;;;;6220660;23;20337;-89
2022/09/01 12:57:51;;;;;;;8.20;3.30;;;25.80;61.90;;;;;;6193468;23;20028;-90
2022/09/01 13:00:24;;;;;;;7.28;3.58;;;25.90;63.30;;;;;;6220215;23;19996;-89
2022/09/01 13:02:54;;;;;;;8.63;4.18;;;25.90;59.80;;;;;;6219834;23;20074;-90
2022/09/01 13:05:30;;;;;;;;;;;25.90;59.90;;;;;;6220756;23;20011;-90
2022/09/01 13:08:21;;;;;;;5.97;3.60;;;26.00;60.40;;;;;;6192674;23;19899;-88
2022/09/01 13:10:53;;;;;;;5.78;3.35;;;26.00;60.80;;;;;;6175954;23;20012;-89
2022/09/01 13:13:22;;;;;;;6.28;3.72;;;26.10;61.10;;;;;;6193241;23;20377;-90
2022/09/01 13:15:52;;;;;;;7.55;3.60;;;26.00;62.20;;;;;;6192742;23;20013;-88
2022/09/01 13:18:20;;;;;;;4.78;3.38;;;26.00;62.40;;;;;;6219230;23;20011;-89
2022/09/01 13:20:46;;;;;;;6.68;3.75;;;25.80;60.80;;;;;;6192980;23;20835;-90
2022/09/01 13:23:12;;;;;;;5.72;3.85;;;25.80;61.40;;;;;;6219735;23;19996;-88